createdAt,value
2024-05-09T00:00:51.954Z,14.00
2024-05-09T00:03:25.310Z,14.00
2024-05-09T00:05:56.111Z,13.90
2024-05-09T00:08:27.098Z,13.90
2024-05-09T00:10:57.786Z,13.80
2024-05-09T00:13:28.510Z,13.70
2024-05-09T00:15:59.101Z,13.80
2024-05-09T00:18:33.613Z,13.80
2024-05-09T00:21:04.471Z,13.70
2024-05-09T00:23:35.283Z,13.70
2024-05-09T00:26:06.091Z,13.80
2024-05-09T00:28:36.777Z,13.70
2024-05-09T00:31:07.872Z,13.70
2024-05-09T00:33:41.232Z,13.70
2024-05-09T00:36:11.823Z,13.60
2024-05-09T00:38:42.403Z,13.70
2024-05-09T00:41:14.608Z,13.60
2024-05-09T00:43:46.941Z,13.60
2024-05-09T00:46:17.643Z,13.50
2024-05-09T00:48:51.591Z,13.50
2024-05-09T00:51:23.158Z,13.50
2024-05-09T00:53:53.994Z,13.50
2024-05-09T00:56:25.334Z,13.50
2024-05-09T00:58:56.658Z,13.50
2024-05-09T01:01:28.949Z,13.50
2024-05-09T01:04:03.160Z,13.50
2024-05-09T01:06:33.799Z,13.50
2024-05-09T01:09:04.439Z,13.40
2024-05-09T01:11:41.109Z,13.40
2024-05-09T01:14:11.869Z,13.40
2024-05-09T01:16:43.041Z,13.40
2024-05-09T01:19:26.200Z,13.40
2024-05-09T01:21:57.087Z,13.30
2024-05-09T01:24:30.449Z,13.30
2024-05-09T01:27:01.131Z,13.20
2024-05-09T01:29:31.683Z,13.20
2024-05-09T01:32:04.748Z,13.10
2024-05-09T01:34:32.898Z,13.10
2024-05-09T01:37:03.478Z,13.20
2024-05-09T01:39:36.768Z,13.20
2024-05-09T01:42:08.218Z,13.20
2024-05-09T01:44:38.799Z,13.00
2024-05-09T01:47:09.572Z,13.00
2024-05-09T01:49:41.195Z,13.00
2024-05-09T01:52:11.997Z,12.90
2024-05-09T01:54:45.442Z,12.70
2024-05-09T01:57:15.955Z,12.60
2024-05-09T01:59:46.534Z,12.50
2024-05-09T02:02:17.338Z,12.60
2024-05-09T02:04:50.365Z,12.50
2024-05-09T02:07:21.608Z,12.50
2024-05-09T02:09:55.750Z,12.50
2024-05-09T02:12:26.389Z,12.50
2024-05-09T02:14:57.051Z,12.60
2024-05-09T02:17:27.879Z,12.50
2024-05-09T02:19:58.543Z,12.50
2024-05-09T02:22:29.200Z,12.60
2024-05-09T02:25:02.500Z,12.50
2024-05-09T02:27:33.136Z,12.60
2024-05-09T02:30:07.755Z,12.60
2024-05-09T02:32:42.964Z,12.60
2024-05-09T02:35:14.272Z,12.60
2024-05-09T02:37:42.203Z,12.60
2024-05-09T02:40:21.632Z,12.60
2024-05-09T02:42:53.623Z,12.60
2024-05-09T02:45:25.044Z,12.60
2024-05-09T02:47:53.220Z,12.60
2024-05-09T02:50:33.014Z,12.60
2024-05-09T02:53:06.045Z,12.60
2024-05-09T02:55:39.510Z,12.60
2024-05-09T02:58:08.360Z,12.60
2024-05-09T03:00:41.677Z,12.60
2024-05-09T03:03:13.482Z,12.60
2024-05-09T03:05:46.615Z,12.70
2024-05-09T03:08:15.246Z,12.70
2024-05-09T03:10:48.819Z,12.80
2024-05-09T03:13:17.086Z,12.80
2024-05-09T03:15:47.914Z,12.80
2024-05-09T03:18:16.146Z,12.90
2024-05-09T03:20:46.952Z,12.90
2024-05-09T03:23:14.990Z,12.80
2024-05-09T03:25:48.375Z,12.90
2024-05-09T03:28:16.281Z,12.80
2024-05-09T03:30:46.944Z,12.80
2024-05-09T03:33:18.606Z,12.80
2024-05-09T03:35:50.988Z,12.80
2024-05-09T03:38:21.881Z,12.80
2024-05-09T03:40:55.606Z,12.80
2024-05-09T03:43:26.237Z,12.80
2024-05-09T03:45:54.193Z,12.90
2024-05-09T03:48:25.042Z,12.90
2024-05-09T03:50:53.148Z,13.00
2024-05-09T03:53:23.768Z,13.00
2024-05-09T03:55:54.586Z,13.10
2024-05-09T03:58:25.201Z,13.00
2024-05-09T04:00:53.271Z,13.10
2024-05-09T04:03:23.980Z,13.10
2024-05-09T04:05:52.210Z,13.10
2024-05-09T04:08:22.979Z,13.10
2024-05-09T04:10:54.044Z,13.20
2024-05-09T04:13:24.801Z,13.20
2024-05-09T04:15:52.880Z,13.30
2024-05-09T04:18:23.504Z,13.30
2024-05-09T04:20:51.590Z,13.40
2024-05-09T04:23:22.259Z,13.30
2024-05-09T04:25:50.314Z,13.40
2024-05-09T04:28:24.164Z,13.50
2024-05-09T04:30:52.110Z,13.60
2024-05-09T04:33:22.935Z,13.60
2024-05-09T04:35:51.092Z,13.70
2024-05-09T04:38:22.000Z,13.80
2024-05-09T04:40:50.058Z,13.80
2024-05-09T04:43:23.672Z,13.90
2024-05-09T04:45:51.900Z,14.00
2024-05-09T04:48:22.753Z,14.20
2024-05-09T04:50:50.842Z,14.20
2024-05-09T04:53:21.615Z,14.30
2024-05-09T04:55:50.468Z,14.40
2024-05-09T04:58:23.967Z,14.50
2024-05-09T05:00:51.965Z,14.60
2024-05-09T05:03:23.145Z,14.60
2024-05-09T05:05:51.567Z,14.60
2024-05-09T05:08:22.281Z,14.60
2024-05-09T05:10:50.625Z,14.80
2024-05-09T05:13:24.878Z,14.90
2024-05-09T05:15:57.486Z,15.20
2024-05-09T05:18:29.831Z,15.70
2024-05-09T05:20:58.567Z,16.40
2024-05-09T05:23:29.614Z,17.30
2024-05-09T05:25:57.642Z,18.10
2024-05-09T05:28:31.002Z,18.70
2024-05-09T05:30:59.039Z,19.50
2024-05-09T05:33:29.735Z,20.20
2024-05-09T05:35:57.679Z,20.90
2024-05-09T05:38:28.888Z,21.10
2024-05-09T05:40:57.017Z,20.90
2024-05-09T05:43:30.490Z,21.10
2024-05-09T05:45:58.512Z,21.60
2024-05-09T05:48:29.223Z,22.40
2024-05-09T05:50:57.194Z,22.00
2024-05-09T05:53:27.966Z,21.20
2024-05-09T05:55:56.013Z,20.40
2024-05-09T05:58:29.296Z,19.70
2024-05-09T06:00:57.219Z,19.10
2024-05-09T06:03:28.735Z,18.70
2024-05-09T06:05:56.816Z,18.80
2024-05-09T06:08:30.262Z,19.70
2024-05-09T06:10:58.770Z,20.70
2024-05-09T06:13:32.143Z,21.40
2024-05-09T06:16:00.959Z,21.80
2024-05-09T06:18:31.817Z,21.70
2024-05-09T06:21:00.369Z,22.10
2024-05-09T06:23:30.981Z,22.10
2024-05-09T06:25:58.884Z,21.80
2024-05-09T06:28:32.237Z,21.70
2024-05-09T06:31:02.508Z,21.40
2024-05-09T06:33:33.557Z,21.40
2024-05-09T06:36:01.930Z,22.00
2024-05-09T06:38:33.043Z,22.60
2024-05-09T06:41:01.159Z,23.30
2024-05-09T06:43:35.405Z,23.80
2024-05-09T06:46:03.387Z,24.20
2024-05-09T06:48:34.193Z,24.60
2024-05-09T06:51:02.255Z,24.60
2024-05-09T06:53:33.017Z,24.90
2024-05-09T06:56:01.231Z,25.50
2024-05-09T06:58:34.653Z,25.80
2024-05-09T07:01:03.947Z,26.10
2024-05-09T07:03:34.803Z,26.50
2024-05-09T07:06:02.975Z,26.80
2024-05-09T07:08:33.960Z,27.00
2024-05-09T07:11:02.232Z,27.00
2024-05-09T07:13:36.093Z,26.80
2024-05-09T07:16:04.440Z,26.50
2024-05-09T07:18:35.410Z,26.20
2024-05-09T07:21:04.005Z,26.30
2024-05-09T07:23:34.838Z,26.30
2024-05-09T07:26:03.359Z,26.10
2024-05-09T07:28:37.029Z,25.90
2024-05-09T07:31:05.513Z,25.60
2024-05-09T07:33:36.338Z,25.70
2024-05-09T07:36:04.619Z,26.10
2024-05-09T07:38:35.573Z,26.50
2024-05-09T07:41:04.306Z,26.80
2024-05-09T07:43:37.756Z,27.20
2024-05-09T07:47:04.498Z,27.60
2024-05-09T07:50:34.881Z,27.70
2024-05-09T07:54:18.465Z,28.10
2024-05-09T07:56:46.911Z,28.20
2024-05-09T07:59:20.448Z,28.00
2024-05-09T08:01:48.377Z,28.10
2024-05-09T08:04:19.020Z,28.20
2024-05-09T08:06:47.086Z,28.30
2024-05-09T08:09:21.125Z,28.60
2024-05-09T08:11:52.886Z,28.80
2024-05-09T08:14:26.311Z,29.00
2024-05-09T08:16:54.217Z,29.40
2024-05-09T08:19:24.860Z,29.30
2024-05-09T08:21:52.915Z,29.30
2024-05-09T08:24:23.639Z,29.40
2024-05-09T08:26:51.601Z,29.40
2024-05-09T08:29:22.356Z,29.50
2024-05-09T08:31:56.206Z,29.40
2024-05-09T08:34:27.148Z,29.50
2024-05-09T08:36:57.542Z,29.50
2024-05-09T08:39:28.313Z,29.50
2024-05-09T08:41:56.359Z,29.40
2024-05-09T08:44:27.194Z,29.40
2024-05-09T08:46:57.972Z,29.60
2024-05-09T08:49:29.704Z,29.60
2024-05-09T08:51:57.773Z,29.90
2024-05-09T08:54:28.560Z,29.90
2024-05-09T08:56:58.370Z,29.90
2024-05-09T08:59:37.756Z,30.00
2024-05-09T09:02:14.696Z,29.90
2024-05-09T09:04:53.987Z,29.90
2024-05-09T09:07:24.056Z,29.90
2024-05-09T09:09:55.870Z,30.10
2024-05-09T09:12:23.988Z,30.20
2024-05-09T09:14:54.755Z,30.40
2024-05-09T09:17:25.708Z,30.40
2024-05-09T09:19:56.535Z,30.50
2024-05-09T09:22:24.570Z,30.30
2024-05-09T09:24:55.366Z,30.30
2024-05-09T09:27:23.814Z,30.00
2024-05-09T09:29:54.398Z,29.80
2024-05-09T09:32:31.375Z,29.60
2024-05-09T09:35:02.118Z,29.50
2024-05-09T09:37:30.573Z,29.60
2024-05-09T09:40:02.148Z,29.80
2024-05-09T09:42:32.163Z,29.80
2024-05-09T09:45:05.617Z,29.80
2024-05-09T09:47:40.537Z,29.80
2024-05-09T09:50:16.858Z,29.70
2024-05-09T09:52:53.480Z,29.60
2024-05-09T09:55:25.050Z,29.50
2024-05-09T09:57:58.846Z,29.60
2024-05-09T10:00:33.019Z,29.60
2024-05-09T10:03:08.123Z,29.60
2024-05-09T10:05:37.134Z,29.70
2024-05-09T10:08:11.206Z,29.60
2024-05-09T10:10:39.535Z,29.40
2024-05-09T10:13:11.065Z,29.30
2024-05-09T10:15:46.210Z,29.40
2024-05-09T10:18:23.100Z,29.40
2024-05-09T10:20:53.133Z,29.00
2024-05-09T10:23:32.703Z,28.80
2024-05-09T10:26:03.629Z,28.60
2024-05-09T10:28:36.992Z,28.50
2024-05-09T10:31:09.640Z,28.90
2024-05-09T10:33:51.549Z,29.10
2024-05-09T10:36:22.627Z,29.10
2024-05-09T10:38:54.752Z,29.10
2024-05-09T10:41:24.193Z,29.00
2024-05-09T10:43:55.340Z,29.10
2024-05-09T10:46:23.380Z,29.00
2024-05-09T10:48:57.105Z,28.30
2024-05-09T10:51:25.756Z,27.70
2024-05-09T10:53:57.116Z,27.10
2024-05-09T10:56:26.207Z,26.90
2024-05-09T10:58:57.595Z,26.70
2024-05-09T11:01:25.780Z,26.90
2024-05-09T11:04:01.809Z,27.20
2024-05-09T11:06:30.800Z,27.30
2024-05-09T11:09:01.980Z,27.40
2024-05-09T11:11:30.199Z,27.30
2024-05-09T11:14:00.912Z,27.50
2024-05-09T11:16:28.871Z,27.50
2024-05-09T11:19:02.538Z,27.30
2024-05-09T11:21:30.658Z,27.20
2024-05-09T11:24:01.710Z,26.90
2024-05-09T11:26:32.871Z,26.70
2024-05-09T11:29:03.519Z,26.30
2024-05-09T11:31:31.847Z,26.30
2024-05-09T11:34:05.534Z,26.20
2024-05-09T11:36:33.400Z,26.20
2024-05-09T11:39:03.927Z,26.10
2024-05-09T11:41:33.736Z,26.00
2024-05-09T11:44:04.283Z,25.90
2024-05-09T11:46:32.209Z,25.80
2024-05-09T11:49:05.812Z,25.70
2024-05-09T11:51:33.895Z,25.60
2024-05-09T11:54:04.616Z,25.50
2024-05-09T11:56:32.692Z,25.40
2024-05-09T11:59:03.476Z,25.20
2024-05-09T12:01:31.501Z,25.20
2024-05-09T12:04:05.216Z,25.30
2024-05-09T12:06:33.766Z,25.30
2024-05-09T12:09:04.474Z,25.40
2024-05-09T12:11:33.794Z,25.30
2024-05-09T12:14:04.403Z,25.20
2024-05-09T12:16:32.570Z,25.10
2024-05-09T12:19:06.207Z,25.00
2024-05-09T12:21:34.262Z,25.00
2024-05-09T12:24:05.013Z,24.90
2024-05-09T12:26:32.946Z,24.90
2024-05-09T12:29:03.698Z,24.90
2024-05-09T12:31:31.746Z,24.80
2024-05-09T12:34:05.099Z,24.70
2024-05-09T12:36:33.316Z,24.60
2024-05-09T12:39:06.445Z,24.60
2024-05-09T12:41:34.299Z,24.50
2024-05-09T12:44:04.995Z,24.40
2024-05-09T12:46:33.221Z,24.40
2024-05-09T12:49:07.329Z,24.40
2024-05-09T12:51:35.464Z,24.50
2024-05-09T12:54:06.157Z,24.40
2024-05-09T12:56:34.170Z,24.40
2024-05-09T12:59:04.783Z,24.50
2024-05-09T13:01:32.816Z,24.40
2024-05-09T13:04:06.688Z,24.40
2024-05-09T13:06:34.927Z,24.40
2024-05-09T13:09:05.803Z,24.30
2024-05-09T13:11:33.783Z,24.30
2024-05-09T13:14:04.447Z,24.20
2024-05-09T13:16:32.618Z,23.90
2024-05-09T13:19:06.139Z,23.70
2024-05-09T13:21:34.148Z,23.80
2024-05-09T13:24:04.934Z,23.90
2024-05-09T13:26:33.046Z,23.90
2024-05-09T13:29:03.569Z,24.00
2024-05-09T13:31:31.661Z,24.00
2024-05-09T13:34:02.482Z,23.80
2024-05-09T13:36:33.394Z,23.80
2024-05-09T13:39:04.040Z,23.60
2024-05-09T13:41:31.961Z,23.60
2024-05-09T13:44:02.703Z,23.60
2024-05-09T13:46:30.887Z,23.50
2024-05-09T13:49:01.840Z,23.50
2024-05-09T13:51:32.574Z,23.60
2024-05-09T13:54:03.196Z,23.50
2024-05-09T13:56:31.178Z,23.50
2024-05-09T13:59:02.208Z,23.50
2024-05-09T14:01:30.258Z,23.40
2024-05-09T14:04:01.164Z,23.50
2024-05-09T14:06:32.408Z,23.50
2024-05-09T14:09:04.719Z,23.50
2024-05-09T14:11:32.785Z,23.50
2024-05-09T14:14:06.611Z,23.50
2024-05-09T14:16:35.060Z,23.50
2024-05-09T14:19:06.196Z,23.60
2024-05-09T14:21:36.915Z,23.60
2024-05-09T14:24:08.456Z,23.50
2024-05-09T14:26:36.872Z,23.40
2024-05-09T14:29:07.515Z,23.30
2024-05-09T14:31:37.968Z,23.20
2024-05-09T14:34:10.364Z,23.20
2024-05-09T14:36:41.451Z,23.20
2024-05-09T14:39:11.994Z,23.20
2024-05-09T14:41:40.923Z,23.10
2024-05-09T14:44:12.803Z,23.10
2024-05-09T14:46:41.098Z,23.00
2024-05-09T14:49:12.524Z,23.00
2024-05-09T14:51:48.054Z,23.10
2024-05-09T14:54:18.883Z,23.10
2024-05-09T14:56:46.892Z,23.10
2024-05-09T14:59:17.633Z,23.00
2024-05-09T15:01:45.740Z,23.00
2024-05-09T15:04:16.560Z,23.10
2024-05-09T15:06:48.823Z,23.10
2024-05-09T15:09:19.622Z,23.00
2024-05-09T15:11:47.788Z,22.90
2024-05-09T15:14:18.480Z,22.90
2024-05-09T15:16:48.685Z,22.90
2024-05-09T15:19:19.665Z,22.90
2024-05-09T15:21:50.451Z,22.70
2024-05-09T15:24:21.308Z,22.70
2024-05-09T15:26:49.379Z,22.80
2024-05-09T15:29:20.114Z,22.80
2024-05-09T15:31:48.035Z,22.70
2024-05-09T15:34:18.898Z,22.80
2024-05-09T15:36:51.483Z,22.80
2024-05-09T15:39:24.575Z,22.80
2024-05-09T15:41:53.272Z,22.70
2024-05-09T15:44:23.963Z,22.70
2024-05-09T15:46:52.788Z,22.70
2024-05-09T15:49:23.598Z,22.60
2024-05-09T15:51:54.461Z,22.60
2024-05-09T15:54:25.572Z,22.60
2024-05-09T15:56:53.693Z,22.50
2024-05-09T15:59:24.331Z,22.50
2024-05-09T16:01:52.696Z,22.50
2024-05-09T16:04:23.617Z,22.40
2024-05-09T16:06:54.942Z,22.50
2024-05-09T16:09:25.804Z,22.40
2024-05-09T16:11:53.697Z,22.40
2024-05-09T16:14:24.351Z,22.30
2024-05-09T16:16:52.445Z,22.30
2024-05-09T16:19:23.193Z,22.30
2024-05-09T16:21:53.881Z,22.30
2024-05-09T16:24:24.777Z,22.30
2024-05-09T16:26:52.811Z,22.20
2024-05-09T16:29:23.569Z,22.20
2024-05-09T16:31:51.597Z,22.10
2024-05-09T16:34:22.279Z,22.10
2024-05-09T16:36:51.694Z,22.00
2024-05-09T16:39:25.009Z,22.00
2024-05-09T16:41:52.973Z,22.00
2024-05-09T16:44:23.469Z,21.90
2024-05-09T16:46:51.598Z,21.90
2024-05-09T16:49:22.459Z,21.90
2024-05-09T16:51:50.412Z,21.80
2024-05-09T16:54:21.168Z,21.80
2024-05-09T16:56:51.976Z,21.70
2024-05-09T16:59:22.973Z,21.70
2024-05-09T17:01:51.105Z,21.60
2024-05-09T17:04:21.912Z,21.50
2024-05-09T17:06:50.061Z,21.50
2024-05-09T17:09:20.935Z,21.50
2024-05-09T17:11:51.535Z,21.50
2024-05-09T17:14:22.240Z,21.50
2024-05-09T17:16:53.106Z,21.40
2024-05-09T17:19:23.791Z,21.30
2024-05-09T17:21:52.401Z,21.30
2024-05-09T17:24:23.073Z,21.20
2024-05-09T17:26:53.877Z,21.20
2024-05-09T17:29:24.670Z,21.10
2024-05-09T17:31:52.932Z,21.10
2024-05-09T17:34:23.707Z,21.10
2024-05-09T17:36:52.024Z,21.00
2024-05-09T17:39:22.635Z,21.00
2024-05-09T17:41:53.274Z,21.00
2024-05-09T17:44:23.988Z,21.00
2024-05-09T17:46:51.944Z,21.00
2024-05-09T17:49:22.838Z,20.90
2024-05-09T17:51:56.879Z,20.80
2024-05-09T17:54:24.937Z,20.80
2024-05-09T17:56:58.691Z,20.70
2024-05-09T17:59:26.616Z,20.60
2024-05-09T18:01:59.422Z,20.50
2024-05-09T18:04:33.287Z,20.50
2024-05-09T18:07:04.427Z,20.40
2024-05-09T18:09:32.464Z,20.40
2024-05-09T18:12:06.206Z,20.40
2024-05-09T18:14:34.173Z,20.30
2024-05-09T18:17:05.068Z,20.30
2024-05-09T18:19:33.155Z,20.20
2024-05-09T18:22:04.012Z,20.20
2024-05-09T18:24:32.041Z,20.10
2024-05-09T18:27:05.905Z,20.00
2024-05-09T18:29:34.865Z,20.00
2024-05-09T18:32:06.297Z,20.00
2024-05-09T18:34:34.294Z,19.90
2024-05-09T18:37:05.115Z,19.90
2024-05-09T18:39:33.290Z,19.80
2024-05-09T18:42:06.793Z,19.70
2024-05-09T18:44:34.664Z,19.70
2024-05-09T18:47:05.447Z,19.70
2024-05-09T18:49:33.683Z,19.70
2024-05-09T18:52:04.504Z,19.60
2024-05-09T18:54:32.550Z,19.60
2024-05-09T18:57:05.941Z,19.60
2024-05-09T18:59:34.283Z,19.60
2024-05-09T19:02:05.130Z,19.60
2024-05-09T19:04:33.435Z,19.50
2024-05-09T19:07:04.491Z,19.50
2024-05-09T19:09:32.551Z,19.40
2024-05-09T19:12:06.776Z,19.40
2024-05-09T19:14:34.697Z,19.40
2024-05-09T19:17:05.587Z,19.30
2024-05-09T19:19:36.091Z,19.30
2024-05-09T19:22:10.031Z,19.30
2024-05-09T19:24:38.199Z,19.30
2024-05-09T19:27:11.821Z,19.30
2024-05-09T19:29:39.765Z,19.20
2024-05-09T19:32:10.795Z,19.20
2024-05-09T19:34:38.793Z,19.20
2024-05-09T19:37:10.205Z,19.20
2024-05-09T19:39:38.351Z,19.10
2024-05-09T19:42:11.816Z,19.20
2024-05-09T19:44:39.735Z,19.20
2024-05-09T19:47:10.425Z,19.20
2024-05-09T19:49:38.489Z,19.10
2024-05-09T19:52:09.671Z,19.10
2024-05-09T19:54:37.764Z,19.00
2024-05-09T19:57:11.295Z,19.00
2024-05-09T19:59:39.236Z,19.00
2024-05-09T20:02:09.897Z,18.90
2024-05-09T20:04:38.084Z,19.00
2024-05-09T20:07:08.848Z,19.00
2024-05-09T20:09:36.800Z,19.00
2024-05-09T20:12:11.170Z,19.00
2024-05-09T20:14:39.056Z,19.10
2024-05-09T20:17:09.675Z,19.10
2024-05-09T20:19:37.649Z,19.00
2024-05-09T20:22:08.498Z,19.00
2024-05-09T20:24:36.485Z,19.00
2024-05-09T20:27:12.431Z,19.00
2024-05-09T20:29:40.391Z,19.00
2024-05-09T20:32:11.550Z,19.00
2024-05-09T20:34:40.071Z,19.00
2024-05-09T20:37:10.847Z,18.90
2024-05-09T20:39:39.301Z,18.80
2024-05-09T20:42:14.731Z,18.70
2024-05-09T20:44:42.962Z,18.70
2024-05-09T20:47:15.056Z,18.50
2024-05-09T20:49:43.094Z,18.40
2024-05-09T20:52:13.971Z,18.30
2024-05-09T20:54:41.998Z,18.30
2024-05-09T20:57:15.450Z,18.10
2024-05-09T20:59:43.731Z,18.10
2024-05-09T21:02:14.548Z,18.00
2024-05-09T21:04:42.810Z,18.00
2024-05-09T21:07:13.767Z,18.00
2024-05-09T21:09:41.805Z,18.00
2024-05-09T21:12:15.214Z,18.10
2024-05-09T21:14:43.321Z,18.10
2024-05-09T21:17:14.106Z,18.00
2024-05-09T21:19:42.125Z,18.00
2024-05-09T21:22:12.931Z,18.10
2024-05-09T21:24:41.065Z,18.00
2024-05-09T21:27:14.440Z,18.00
2024-05-09T21:29:42.646Z,18.00
2024-05-09T21:32:13.202Z,18.00
2024-05-09T21:34:41.212Z,18.00
2024-05-09T21:37:12.054Z,17.90
2024-05-09T21:39:40.205Z,17.80
2024-05-09T21:42:10.921Z,17.80
2024-05-09T21:44:41.459Z,17.80
2024-05-09T21:47:12.277Z,17.70
2024-05-09T21:49:40.186Z,17.70
2024-05-09T21:52:11.067Z,17.60
2024-05-09T21:54:39.301Z,17.50
2024-05-09T21:57:10.279Z,17.50
2024-05-09T21:59:42.189Z,17.40
2024-05-09T22:02:12.946Z,17.30
2024-05-09T22:04:41.966Z,17.30
2024-05-09T22:07:12.833Z,17.20
2024-05-09T22:09:45.525Z,17.20
2024-05-09T22:12:17.146Z,17.20
2024-05-09T22:14:47.883Z,17.20
2024-05-09T22:17:18.594Z,17.30
2024-05-09T22:19:46.979Z,17.30
2024-05-09T22:22:17.664Z,17.30
2024-05-09T22:24:45.708Z,17.30
2024-05-09T22:27:16.387Z,17.30
2024-05-09T22:29:47.154Z,17.30
2024-05-09T22:32:17.825Z,17.30
2024-05-09T22:34:45.768Z,17.20
2024-05-09T22:37:16.517Z,17.20
2024-05-09T22:39:44.549Z,17.20
2024-05-09T22:42:15.160Z,17.20
2024-05-09T22:44:43.113Z,17.20
2024-05-09T22:47:16.420Z,17.20
2024-05-09T22:49:44.438Z,17.10
2024-05-09T22:52:15.249Z,17.10
2024-05-09T22:54:43.275Z,17.10
2024-05-09T22:57:13.787Z,17.10
2024-05-09T22:59:41.757Z,17.10
2024-05-09T23:02:12.365Z,17.10
2024-05-09T23:04:43.225Z,17.00
2024-05-09T23:07:14.127Z,16.90
2024-05-09T23:09:45.210Z,16.90
2024-05-09T23:12:17.869Z,16.90
2024-05-09T23:14:45.862Z,16.90
2024-05-09T23:17:16.936Z,16.90
2024-05-09T23:19:47.722Z,16.90
2024-05-09T23:22:18.522Z,16.90
2024-05-09T23:24:47.451Z,16.90
2024-05-09T23:27:18.208Z,16.80
2024-05-09T23:29:46.269Z,16.80
2024-05-09T23:32:16.815Z,16.70
2024-05-09T23:34:47.494Z,16.60
2024-05-09T23:37:18.157Z,16.60
2024-05-09T23:39:46.112Z,16.50
2024-05-09T23:42:17.270Z,16.50
2024-05-09T23:44:45.171Z,16.40
2024-05-09T23:47:15.847Z,16.40
2024-05-09T23:49:43.863Z,16.40
2024-05-09T23:52:17.427Z,16.40
2024-05-09T23:54:46.501Z,16.40
2024-05-09T23:57:17.171Z,16.40
2024-05-09T23:59:45.064Z,16.30
